createdAt,value
2022-12-16T00:02:25.846Z,100.57851
2022-12-16T00:17:28.460Z,15.26638
2022-12-16T00:32:30.805Z,0.89802
2022-12-16T00:47:33.130Z,0
2022-12-16T01:02:35.625Z,0
2022-12-16T01:17:38.050Z,0
2022-12-16T01:32:40.295Z,0
2022-12-16T01:47:42.668Z,0
2022-12-16T02:02:45.193Z,0
2022-12-16T02:17:47.604Z,0
2022-12-16T02:32:49.996Z,0
2022-12-16T02:47:52.329Z,0
2022-12-16T03:02:54.787Z,0
2022-12-16T03:36:15.181Z,0
2022-12-16T04:09:37.684Z,0
2022-12-16T05:00:13.217Z,0
2022-12-16T05:15:15.556Z,0
2022-12-16T05:30:18.087Z,0
2022-12-16T05:45:20.424Z,0
2022-12-16T06:00:22.678Z,0
2022-12-16T06:15:24.943Z,0
2022-12-16T06:30:27.360Z,0
2022-12-16T06:45:34.508Z,0
2022-12-16T07:00:37.488Z,0
2022-12-16T07:15:39.796Z,0
2022-12-16T07:30:42.285Z,0
2022-12-16T07:49:00.088Z,0
2022-12-16T08:04:02.561Z,0
2022-12-16T08:19:10.529Z,0
2022-12-16T08:34:13.386Z,0
2022-12-16T09:04:17.885Z,0
2022-12-16T09:19:20.129Z,0
2022-12-16T09:34:22.370Z,0
2022-12-16T09:49:24.617Z,0
2022-12-16T10:04:26.972Z,0
2022-12-16T10:19:29.259Z,0
2022-12-16T10:34:31.513Z,0
2022-12-16T10:49:33.855Z,0
2022-12-16T11:04:36.490Z,0
2022-12-16T11:19:39.742Z,0
2022-12-16T11:34:42.029Z,0
2022-12-16T11:49:44.275Z,0
2022-12-16T12:04:46.661Z,0
2022-12-16T12:19:48.917Z,0
2022-12-16T12:34:51.128Z,0
2022-12-16T12:49:53.459Z,0
2022-12-16T13:04:56.578Z,0
2022-12-16T13:19:58.832Z,0
2022-12-16T13:35:01.114Z,0
2022-12-16T13:50:03.287Z,0
2022-12-16T14:05:05.664Z,0
2022-12-16T14:20:07.892Z,0
2022-12-16T14:35:10.190Z,0
2022-12-16T14:50:12.456Z,0
2022-12-16T15:05:14.687Z,0.89802
2022-12-16T15:20:16.861Z,9.87825
2022-12-16T15:35:19.187Z,49.39124
2022-12-16T15:50:21.531Z,168.82823
2022-12-16T16:05:23.779Z,584.61261
2022-12-16T16:20:25.986Z,889.94025
2022-12-16T16:35:28.385Z,915.0849
2022-12-16T16:50:30.667Z,1501.49353
2022-12-16T17:05:32.865Z,1893.92944
2022-12-16T17:20:35.125Z,2810.8103
2022-12-16T17:35:37.362Z,2448.90723
2022-12-16T17:50:39.584Z,3099.07544
2022-12-16T18:05:44.640Z,3710.62891
2022-12-16T18:20:47.394Z,3946.80884
2022-12-16T18:35:49.601Z,3604.66211
2022-12-16T18:50:52.045Z,4038.40698
2022-12-16T19:05:55.646Z,4652.6543
2022-12-16T19:20:57.852Z,4759.51904
2022-12-16T19:36:00.023Z,4709.22998
2022-12-16T19:51:02.229Z,4357.20508
2022-12-16T20:06:04.559Z,4341.04053
2022-12-16T20:21:06.793Z,3877.66113
2022-12-16T20:36:09.044Z,3732.1814
2022-12-16T20:51:11.417Z,3654.95142
2022-12-16T21:06:13.617Z,3556.16895
2022-12-16T21:21:16.170Z,3270.5979
2022-12-16T21:36:18.379Z,2572.83447
2022-12-16T21:51:20.600Z,2515.36084
2022-12-16T22:06:22.847Z,2149.86572
2022-12-16T22:21:25.209Z,1654.15735
2022-12-16T22:36:27.426Z,1251.84338
2022-12-16T22:51:29.687Z,859.40753
2022-12-16T23:06:31.894Z,762.42108
2022-12-16T23:21:34.081Z,470.56378
2022-12-16T23:36:36.352Z,250.54826
2022-12-16T23:51:38.618Z,99.6805
